Abadan, Iran
Current Conditions -  °F | °C
As of 1:00 PM on Wednesday 28 Jan 2015 (Local Time) from OIAA Reporting Station
Haze Haze  
Wind Chill: 72°   Ceiling: Unl
Heat Index: 72°   Visibility: 3mi
Dew Point: 59°   Wind: 18mph
Humidity: 64%   Direction: 110°ESE
Pressure: 29.97"   Gusts: NA
Location:  30.33°N, 48.28°E
Report Text: OIAA 280900Z 11016KT 5000 HZ NSC 22/15 Q1015
Loading
Personal Weather Stations






























Interactive Weather Map New forecast layout! Learn more

10-Day Weather Forecast

Advertisements
Track Severe Weather on mobile